Arlington, Oregon
Current Conditions -  °F | °C
As of 2:53 AM on Thursday 23 Oct 2014 (Local Time) from KHRI Reporting Station
Light Rain Light Rain  
Wind Chill: 57°   Ceiling: 8500
Heat Index: 57°   Visibility: 10mi
Dew Point: 53°   Wind: 6mph
Humidity: 87%   Direction: 180°S
Pressure: 29.79"   Gusts: NA
Location:  45.72°N, 120.2°W
Report Text: KHRI 230953Z AUTO 18005KT 10SM -RA SCT070 OVC085 14/12 A2979 RMK AO2 RAE21B39 SLP084 P0001 T01390117
Loading
Personal Weather Stations






























Interactive Weather Map
Tropical Storm Tracking
New forecast layout! Learn more

10-Day Weather Forecast

Advertisements
Track Severe Weather on mobile